createdAt,value
2019-05-26T13:43:18.019Z,97871.66
2019-05-26T13:45:49.448Z,97867.98
2019-05-26T13:48:19.661Z,97872.98
2019-05-26T13:50:50.273Z,97871.00
2019-05-26T13:53:20.581Z,97863.86
2019-05-26T13:55:50.916Z,97861.34
2019-05-26T13:58:21.381Z,97868.25
2019-05-26T14:00:50.639Z,97863.55
2019-05-26T14:03:24.212Z,97851.83
2019-05-26T14:05:53.915Z,97858.95
2019-05-26T14:08:23.159Z,97853.70
2019-05-26T14:10:53.230Z,97856.59
2019-05-26T14:13:23.532Z,97856.05
2019-05-26T14:15:55.781Z,97855.29
2019-05-26T14:18:27.190Z,97859.13
2019-05-26T14:20:57.829Z,97853.88
2019-05-26T14:23:27.149Z,97864.30
2019-05-26T14:25:57.372Z,97857.06
2019-05-26T14:28:26.785Z,97854.16
2019-05-26T14:30:57.398Z,97855.41
2019-05-26T14:33:26.839Z,97858.27
2019-05-26T14:35:56.288Z,97852.45
2019-05-26T14:38:42.000Z,97850.60
2019-05-26T14:41:01.177Z,97848.45
2019-05-26T14:43:30.404Z,97846.56
2019-05-26T14:46:00.654Z,97845.91
2019-05-26T14:48:31.170Z,97851.67
2019-05-26T14:51:01.409Z,97848.75
2019-05-26T14:53:31.029Z,97842.36
2019-05-26T14:56:01.509Z,97840.62
2019-05-26T14:58:30.824Z,97849.18
2019-05-26T15:01:01.192Z,97844.16
2019-05-26T15:03:31.711Z,97841.70
2019-05-26T15:06:05.890Z,97850.54
2019-05-26T15:08:34.402Z,97840.42
2019-05-26T15:11:03.860Z,97833.59
2019-05-26T15:13:35.039Z,97836.55
2019-05-26T15:16:09.732Z,97837.86
2019-05-26T15:18:36.303Z,97837.52
2019-05-26T15:21:06.567Z,97832.86
2019-05-26T15:23:39.549Z,97830.50
2019-05-26T15:26:09.767Z,97832.91
2019-05-26T15:28:39.970Z,97828.21
2019-05-26T15:31:10.451Z,97831.32
2019-05-26T15:33:40.680Z,97837.36
2019-05-26T15:36:11.319Z,97824.70
2019-05-26T15:38:43.289Z,97821.23
2019-05-26T15:41:13.909Z,97818.66
2019-05-26T15:43:44.239Z,97822.35
2019-05-26T15:46:24.854Z,97825.19
2019-05-26T15:48:46.116Z,97818.74
2019-05-26T15:51:15.498Z,97816.31
2019-05-26T15:53:45.812Z,97818.06
2019-05-26T15:56:17.992Z,97811.86
2019-05-26T15:58:47.295Z,97811.30
2019-05-26T16:01:17.698Z,97804.14
2019-05-26T16:03:47.996Z,97804.52
2019-05-26T16:06:18.296Z,97802.05
2019-05-26T16:08:48.618Z,97800.77
2019-05-26T16:11:19.180Z,97804.52
2019-05-26T16:13:48.634Z,97798.44
2019-05-26T16:16:18.970Z,97800.19
2019-05-26T16:18:51.697Z,97800.24
2019-05-26T16:21:28.050Z,97799.19
2019-05-26T16:23:54.064Z,97797.09
2019-05-26T16:26:27.065Z,97805.74
2019-05-26T16:28:57.508Z,97800.60
2019-05-26T16:31:27.739Z,97801.25
2019-05-26T16:33:57.134Z,97795.16
2019-05-26T16:36:26.182Z,97801.03
2019-05-26T16:38:55.794Z,97800.09
2019-05-26T16:41:25.424Z,97799.35
2019-05-26T16:43:55.705Z,97802.76
2019-05-26T16:46:25.051Z,97792.52
2019-05-26T16:48:55.340Z,97795.28
2019-05-26T16:51:25.649Z,97797.30
2019-05-26T16:53:55.038Z,97791.17
2019-05-26T16:56:25.552Z,97783.48
2019-05-26T16:58:55.755Z,97778.78
2019-05-26T17:11:21.153Z,97767.46
2019-05-26T17:13:52.504Z,97773.14
2019-05-26T17:16:23.110Z,97772.16
2019-05-26T17:18:53.487Z,97773.33
2019-05-26T17:21:25.413Z,97768.97
2019-05-26T17:23:55.787Z,97767.37
2019-05-26T17:26:26.195Z,97768.95
2019-05-26T17:28:56.344Z,97771.89
2019-05-26T17:31:26.572Z,97766.95
2019-05-26T17:33:56.713Z,97770.47
2019-05-26T17:36:27.170Z,97767.50
2019-05-26T17:38:58.143Z,97777.16
2019-05-26T17:41:28.586Z,97774.58
2019-05-26T17:43:58.134Z,97771.20
2019-05-26T17:46:28.620Z,97765.86
2019-05-26T17:48:59.531Z,97768.03
2019-05-26T17:51:43.953Z,97769.72
2019-05-26T17:54:15.727Z,97769.23
2019-05-26T17:56:44.997Z,97763.69
2019-05-26T17:59:15.280Z,97769.41
2019-05-26T18:01:45.544Z,97769.66
2019-05-26T18:04:15.834Z,97759.53
2019-05-26T18:06:46.337Z,97762.69
2019-05-26T18:09:17.122Z,97761.94
2019-05-26T18:11:47.497Z,97758.71
2019-05-26T18:14:17.881Z,97768.72
2019-05-26T18:16:48.603Z,97762.16
2019-05-26T18:19:19.982Z,97761.97
2019-05-26T18:21:50.196Z,97756.74
2019-05-26T18:24:20.416Z,97756.80
2019-05-26T18:26:50.751Z,97756.37
2019-05-26T18:29:21.091Z,97759.21
2019-05-26T18:31:51.713Z,97752.73
2019-05-26T18:34:22.021Z,97754.39
2019-05-26T18:36:52.303Z,97759.41
2019-05-26T18:39:22.608Z,97760.09
2019-05-26T18:41:52.735Z,97752.67
2019-05-26T18:44:22.905Z,97750.83
2019-05-26T18:46:53.886Z,97753.67
2019-05-26T18:49:24.215Z,97758.53
2019-05-26T18:51:56.038Z,97759.75
2019-05-26T18:54:28.526Z,97759.75
2019-05-26T18:57:00.660Z,97756.20
2019-05-26T18:59:32.792Z,97762.56
2019-05-26T19:02:04.273Z,97759.30
2019-05-26T19:04:35.033Z,97761.44
2019-05-26T19:07:05.833Z,97753.66
2019-05-26T19:09:37.055Z,97754.17
2019-05-26T19:12:08.404Z,97753.33
2019-05-26T19:14:40.284Z,97754.60
2019-05-26T19:17:11.584Z,97763.11
2019-05-26T19:19:43.282Z,97755.99
2019-05-26T19:22:15.291Z,97762.13
2019-05-26T19:24:45.731Z,97763.53
2019-05-26T19:27:18.272Z,97764.31
2019-05-26T19:29:49.205Z,97763.39
2019-05-26T19:32:20.781Z,97768.35
2019-05-26T19:34:51.496Z,97776.98
2019-05-26T19:37:23.288Z,97770.78
2019-05-26T19:39:56.523Z,97774.86
2019-05-26T19:42:29.674Z,97775.02
2019-05-26T19:45:00.452Z,97775.34
2019-05-26T19:47:31.747Z,97777.52
2019-05-26T19:50:03.316Z,97775.14
2019-05-26T19:52:34.397Z,97773.62
2019-05-26T19:55:06.125Z,97777.67
2019-05-26T19:57:37.484Z,97787.91
2019-05-26T20:00:09.894Z,97786.32
2019-05-26T20:02:45.923Z,97787.81
2019-05-26T20:05:17.601Z,97786.94
2019-05-26T20:07:48.816Z,97783.78
2019-05-26T20:10:20.464Z,97786.08
2019-05-26T20:12:51.421Z,97789.38
2019-05-26T20:15:22.240Z,97794.75
2019-05-26T20:17:52.967Z,97794.52
2019-05-26T20:20:23.940Z,97793.39
2019-05-26T20:22:54.385Z,97793.64
2019-05-26T20:25:25.392Z,97794.39
2019-05-26T20:27:56.257Z,97803.49
2019-05-26T20:30:27.831Z,97797.03
2019-05-26T20:32:58.133Z,97804.56
2019-05-26T20:35:28.828Z,97806.37
2019-05-26T20:37:59.257Z,97809.73
2019-05-26T20:40:31.519Z,97804.69
2019-05-26T20:43:02.038Z,97815.95
2019-05-26T20:45:32.648Z,97806.50
2019-05-26T20:48:03.205Z,97801.84
2019-05-26T20:50:34.282Z,97811.76
2019-05-26T20:53:05.483Z,97805.25
2019-05-26T20:55:36.341Z,97808.52
2019-05-26T20:58:07.039Z,97811.22
2019-05-26T21:00:37.848Z,97806.63
2019-05-26T21:03:08.129Z,97805.98
2019-05-26T21:05:38.510Z,97805.25
2019-05-26T21:08:09.364Z,97802.38
2019-05-26T21:10:39.944Z,97805.79
2019-05-26T21:13:11.167Z,97803.31
2019-05-26T21:15:41.857Z,97797.42
2019-05-26T21:18:12.307Z,97800.37
2019-05-26T21:20:43.221Z,97794.47
2019-05-26T21:23:13.790Z,97799.46
2019-05-26T21:25:44.686Z,97797.16
2019-05-26T21:28:14.892Z,97802.16
2019-05-26T21:30:45.094Z,97799.11
2019-05-26T21:33:16.421Z,97797.25
2019-05-26T21:35:48.800Z,97794.49
2019-05-26T21:38:19.047Z,97794.23
2019-05-26T21:40:49.477Z,97799.23
2019-05-26T21:43:19.738Z,97801.80
2019-05-26T21:45:50.230Z,97802.23
2019-05-26T21:48:20.670Z,97802.68
2019-05-26T21:50:51.696Z,97805.87
2019-05-26T21:53:21.990Z,97806.08
2019-05-26T21:55:52.189Z,97804.06
2019-05-26T21:58:22.391Z,97804.62
2019-05-26T22:00:53.419Z,97805.97
2019-05-26T22:03:22.736Z,97804.95
2019-05-26T22:05:52.768Z,97804.80
2019-05-26T22:08:22.955Z,97805.03
2019-05-26T22:10:53.079Z,97805.03
2019-05-26T22:13:22.325Z,97805.66
2019-05-26T22:15:52.689Z,97801.44
2019-05-26T22:18:22.853Z,97803.84
2019-05-26T22:20:53.033Z,97802.42
2019-05-26T22:23:23.231Z,97799.55
2019-05-26T22:25:53.483Z,97802.27
2019-05-26T22:28:23.880Z,97799.09
2019-05-26T22:30:56.541Z,97797.66
2019-05-26T22:33:26.791Z,97799.13
2019-05-26T22:35:56.999Z,97795.87
2019-05-26T22:38:27.322Z,97790.52
2019-05-26T22:40:57.501Z,97793.36
2019-05-26T22:43:27.653Z,97791.19
2019-05-26T22:45:57.796Z,97786.56
2019-05-26T22:48:28.091Z,97789.39
2019-05-26T22:50:59.316Z,97789.83
2019-05-26T22:53:29.546Z,97790.45
2019-05-26T22:55:59.870Z,97789.83
2019-05-26T22:58:30.688Z,97782.03
2019-05-26T23:01:00.804Z,97785.63
2019-05-26T23:03:31.056Z,97788.64
2019-05-26T23:06:01.429Z,97788.81
2019-05-26T23:08:31.829Z,97781.72
2019-05-26T23:11:03.396Z,97784.58
2019-05-26T23:13:36.189Z,97783.89
2019-05-26T23:16:06.736Z,97780.38
2019-05-26T23:18:36.957Z,97785.16
2019-05-26T23:21:07.286Z,97781.56
2019-05-26T23:23:37.532Z,97777.98
2019-05-26T23:26:08.176Z,97781.97
2019-05-26T23:28:39.687Z,97781.08
2019-05-26T23:31:15.073Z,97779.73
2019-05-26T23:33:49.282Z,97776.94
2019-05-26T23:36:19.525Z,97777.89
2019-05-26T23:38:49.751Z,97782.64
2019-05-26T23:41:19.906Z,97769.41
2019-05-26T23:43:50.065Z,97769.97
2019-05-26T23:46:20.231Z,97769.88
2019-05-26T23:48:50.432Z,97772.84
2019-05-26T23:51:20.678Z,97761.73
2019-05-26T23:53:50.954Z,97766.27
2019-05-26T23:56:21.974Z,97760.80
2019-05-26T23:58:52.910Z,97759.60
